Time;durP1;ratioP1;P1;durP2;ratioP2;P2;SDS_P1;SDS_P2;PMS_P1;PMS_P2;Temp;Humidity;BMP_temperature;BMP_pressure;BME280_temperature;BME280_humidity;BME280_pressure;Samples;Min_cycle;Max_cycle;Signal;HPM_P1;HPM_P2
2022/05/25 00:00:37;;;;;;;0.40;0.40;;;20.60;56.50;;;;;;5149124;27;43512;-63
2022/05/25 00:03:06;;;;;;;0.40;0.40;;;20.60;56.50;;;;;;5130442;27;43536;-64
2022/05/25 00:05:34;;;;;;;0.75;0.50;;;20.60;56.60;;;;;;5150970;27;43495;-64
2022/05/25 00:08:02;;;;;;;0.50;0.50;;;20.50;56.50;;;;;;5148672;27;43799;-63
2022/05/25 00:10:30;;;;;;;0.40;0.40;;;20.50;56.50;;;;;;5149098;27;43454;-63
2022/05/25 00:12:57;;;;;;;0.70;0.60;;;20.50;56.50;;;;;;5143172;27;44028;-63
2022/05/25 00:15:25;;;;;;;0.52;0.52;;;20.50;56.60;;;;;;5148653;27;43464;-64
2022/05/25 00:17:53;;;;;;;1.05;0.60;;;20.50;56.50;;;;;;5147710;27;44717;-63
2022/05/25 00:20:21;;;;;;;0.75;0.63;;;20.50;56.60;;;;;;5143802;27;43453;-63
2022/05/25 00:22:51;;;;;;;0.45;0.45;;;20.50;56.60;;;;;;5149002;27;43435;-63
2022/05/25 00:25:22;;;;;;;0.60;0.60;;;20.50;56.50;;;;;;5142416;27;43609;-63
2022/05/25 00:27:50;;;;;;;0.50;0.50;;;20.50;56.50;;;;;;5136617;27;44797;-63
2022/05/25 00:30:18;;;;;;;1.27;0.60;;;20.40;56.60;;;;;;5148850;27;43889;-63
2022/05/25 00:32:46;;;;;;;0.50;0.50;;;20.40;56.60;;;;;;5130392;27;43454;-63
2022/05/25 00:35:16;;;;;;;0.63;0.63;;;20.40;56.60;;;;;;5149059;27;43978;-63
2022/05/25 00:37:45;;;;;;;0.40;0.40;;;20.40;56.60;;;;;;5148226;27;44974;-63
2022/05/25 00:40:19;;;;;;;0.55;0.50;;;20.40;56.60;;;;;;5148590;27;43435;-63
2022/05/25 00:42:47;;;;;;;0.65;0.60;;;20.40;56.60;;;;;;5150440;27;43509;-64
2022/05/25 00:45:15;;;;;;;0.32;0.32;;;20.40;56.60;;;;;;5130619;27;43478;-63
2022/05/25 00:47:46;;;;;;;0.50;0.50;;;20.40;56.60;;;;;;5145557;27;44059;-63
2022/05/25 00:50:15;;;;;;;;;;;20.40;56.60;;;;;;5143558;27;43569;-63
2022/05/25 00:52:45;;;;;;;0.40;0.40;;;20.30;56.60;;;;;;5147153;27;43403;-64
2022/05/25 00:55:19;;;;;;;0.43;0.43;;;20.30;56.70;;;;;;5130193;27;43388;-63
2022/05/25 00:57:49;;;;;;;0.52;0.52;;;20.30;56.70;;;;;;5140160;27;43893;-63
2022/05/25 01:00:20;;;;;;;0.43;0.43;;;20.30;56.60;;;;;;5148549;27;43419;-63
2022/05/25 01:02:53;;;;;;;0.40;0.40;;;20.30;56.60;;;;;;5150002;27;43395;-63
2022/05/25 01:05:26;;;;;;;1.60;0.60;;;20.30;56.60;;;;;;5145368;27;43444;-64
2022/05/25 01:08:22;;;;;;;0.57;0.57;;;20.30;56.60;;;;;;5148615;27;43800;-63
2022/05/25 01:11:14;;;;;;;0.50;0.50;;;20.30;56.60;;;;;;5147488;27;43479;-63
2022/05/25 01:13:45;;;;;;;0.50;0.50;;;20.30;56.60;;;;;;5148270;27;43486;-63
2022/05/25 01:16:39;;;;;;;0.70;0.60;;;20.30;56.70;;;;;;5150525;27;43387;-63
2022/05/25 01:19:22;;;;;;;0.40;0.40;;;20.20;56.60;;;;;;5131868;27;43891;-63
2022/05/25 01:22:14;;;;;;;0.70;0.70;;;20.20;56.70;;;;;;5147759;27;43977;-63
2022/05/25 01:24:45;;;;;;;0.63;0.60;;;20.20;56.70;;;;;;5147907;27;43751;-63
2022/05/25 01:27:35;;;;;;;0.40;0.40;;;20.20;56.70;;;;;;5129412;27;43450;-63
2022/05/25 01:30:17;;;;;;;0.50;0.50;;;20.20;56.60;;;;;;5147293;27;44164;-64
2022/05/25 01:33:15;;;;;;;0.73;0.60;;;20.20;56.70;;;;;;5140005;27;43383;-63
2022/05/25 01:36:04;;;;;;;0.77;0.50;;;20.20;56.70;;;;;;5152382;27;43439;-63
2022/05/25 01:38:49;;;;;;;0.70;0.70;;;20.10;56.70;;;;;;5151048;27;43466;-63
2022/05/25 01:41:25;;;;;;;0.60;0.60;;;20.10;56.70;;;;;;5151218;27;44026;-63
2022/05/25 01:43:58;;;;;;;0.52;0.52;;;20.10;56.70;;;;;;5151399;27;43792;-63
2022/05/25 01:46:31;;;;;;;1.10;0.45;;;20.10;56.70;;;;;;5148566;27;43515;-63
2022/05/25 01:49:04;;;;;;;1.10;0.98;;;20.10;56.70;;;;;;5151346;27;43511;-63
2022/05/25 01:51:42;;;;;;;0.75;0.55;;;20.10;56.70;;;;;;5152711;27;43817;-63
2022/05/25 01:54:14;;;;;;;0.38;0.38;;;20.10;56.70;;;;;;5147069;27;43482;-63
2022/05/25 01:56:45;;;;;;;0.55;0.55;;;20.10;56.70;;;;;;5146439;27;43452;-63
2022/05/25 01:59:16;;;;;;;0.68;0.68;;;20.10;56.70;;;;;;5151239;27;43386;-64
2022/05/25 02:04:46;;;;;;;0.70;0.70;;;20.10;56.70;;;;;;5142352;27;43492;-63
2022/05/25 02:07:35;;;;;;;0.70;0.70;;;20.10;56.70;;;;;;5152028;27;43631;-63
2022/05/25 02:10:33;;;;;;;0.50;0.50;;;20.00;56.70;;;;;;5138689;27;43459;-64
2022/05/25 02:13:12;;;;;;;0.60;0.60;;;20.10;56.70;;;;;;5150197;27;43792;-64
2022/05/25 02:15:51;;;;;;;0.73;0.60;;;20.00;56.70;;;;;;5149985;27;43446;-63
2022/05/25 02:18:41;;;;;;;0.68;0.68;;;20.00;56.70;;;;;;5150967;27;43407;-64
2022/05/25 02:21:26;;;;;;;0.75;0.45;;;20.00;56.70;;;;;;5134002;27;43466;-63
2022/05/25 02:24:02;;;;;;;0.47;0.47;;;20.00;56.70;;;;;;5134468;27;43865;-64
2022/05/25 02:26:38;;;;;;;0.55;0.55;;;20.00;56.80;;;;;;5150244;27;43966;-64
2022/05/25 02:29:15;;;;;;;1.05;0.70;;;20.00;56.80;;;;;;5153227;27;43409;-63
2022/05/25 02:31:48;;;;;;;0.50;0.50;;;20.00;56.80;;;;;;5138049;27;43450;-64
2022/05/25 02:34:20;;;;;;;0.50;0.50;;;19.90;56.80;;;;;;5150581;27;43780;-63
2022/05/25 02:36:49;;;;;;;0.70;0.70;;;20.00;56.80;;;;;;5134021;27;43458;-63
2022/05/25 02:39:17;;;;;;;0.63;0.63;;;19.90;56.70;;;;;;5150226;27;43760;-63
2022/05/25 02:41:51;;;;;;;0.60;0.60;;;20.00;56.80;;;;;;5148109;27;43966;-63
2022/05/25 02:44:19;;;;;;;0.60;0.60;;;19.90;56.70;;;;;;5149747;27;44723;-63
2022/05/25 02:46:47;;;;;;;0.63;0.63;;;19.90;56.70;;;;;;5152710;27;43417;-63
2022/05/25 02:49:17;;;;;;;0.60;0.60;;;19.90;56.70;;;;;;5147382;27;44090;-63
2022/05/25 02:51:45;;;;;;;0.50;0.50;;;19.90;56.80;;;;;;5131039;27;43441;-64
2022/05/25 02:54:13;;;;;;;0.52;0.52;;;19.90;56.70;;;;;;5150307;27;44639;-64
2022/05/25 02:56:40;;;;;;;0.60;0.60;;;19.90;56.70;;;;;;5152371;27;43557;-63
2022/05/25 02:59:07;;;;;;;0.95;0.60;;;19.90;56.80;;;;;;5149417;27;43467;-63
2022/05/25 03:01:35;;;;;;;0.57;0.50;;;19.90;56.70;;;;;;5144210;27;43464;-63
2022/05/25 03:04:02;;;;;;;0.57;0.50;;;19.90;56.80;;;;;;5141910;27;43861;-64
2022/05/25 03:06:31;;;;;;;0.50;0.50;;;19.90;56.80;;;;;;5152309;27;43431;-63
2022/05/25 03:08:58;;;;;;;0.60;0.60;;;19.90;56.70;;;;;;5148860;27;43462;-63
2022/05/25 03:11:25;;;;;;;0.68;0.68;;;19.80;56.70;;;;;;5146020;27;43480;-63
2022/05/25 03:13:53;;;;;;;0.60;0.60;;;19.80;56.70;;;;;;5150045;27;43778;-63
2022/05/25 03:16:22;;;;;;;0.57;0.57;;;19.80;56.70;;;;;;5151948;27;43661;-64
2022/05/25 03:18:53;;;;;;;0.65;0.63;;;19.80;56.80;;;;;;5130468;27;43476;-63
2022/05/25 03:21:20;;;;;;;1.50;0.90;;;19.80;56.70;;;;;;5148523;27;43545;-63
2022/05/25 03:23:48;;;;;;;0.47;0.40;;;19.80;56.80;;;;;;5149579;27;44705;-64
2022/05/25 03:26:16;;;;;;;0.85;0.70;;;19.80;56.80;;;;;;5151323;27;43696;-63
2022/05/25 03:28:43;;;;;;;0.90;0.80;;;19.80;56.80;;;;;;5132843;27;43423;-63
2022/05/25 03:31:11;;;;;;;0.68;0.68;;;19.80;56.80;;;;;;5149588;27;43472;-63
2022/05/25 03:33:39;;;;;;;0.60;0.60;;;19.80;56.80;;;;;;5149929;27;44047;-63
2022/05/25 03:36:07;;;;;;;0.88;0.57;;;19.80;56.80;;;;;;5150733;27;43706;-63
2022/05/25 03:38:34;;;;;;;0.50;0.50;;;19.80;56.80;;;;;;5133856;27;43858;-64
2022/05/25 03:41:02;;;;;;;0.68;0.68;;;19.80;56.80;;;;;;5149648;27;43563;-64
2022/05/25 03:43:34;;;;;;;0.60;0.60;;;19.70;56.70;;;;;;5150048;27;43799;-64
2022/05/25 03:46:02;;;;;;;0.55;0.55;;;19.80;56.80;;;;;;5149366;27;44276;-63
2022/05/25 03:48:29;;;;;;;0.70;0.70;;;19.80;56.80;;;;;;5140058;27;43479;-63
2022/05/25 03:50:57;;;;;;;0.60;0.60;;;19.70;56.70;;;;;;5130250;27;43454;-63
2022/05/25 03:53:24;;;;;;;0.75;0.60;;;19.70;56.80;;;;;;5150248;27;43794;-63
2022/05/25 03:55:52;;;;;;;0.70;0.70;;;19.70;56.80;;;;;;5147342;27;43508;-63
2022/05/25 03:58:19;;;;;;;0.70;0.70;;;19.70;56.70;;;;;;5148942;27;43538;-63
2022/05/25 04:00:47;;;;;;;0.90;0.90;;;19.70;56.80;;;;;;5130799;27;43467;-64
2022/05/25 04:03:21;;;;;;;0.52;0.52;;;19.70;56.80;;;;;;5149244;27;44895;-64
2022/05/25 04:05:49;;;;;;;0.68;0.68;;;19.70;56.80;;;;;;5144349;27;43430;-63
2022/05/25 04:08:17;;;;;;;0.63;0.50;;;19.70;56.80;;;;;;5148477;27;43522;-63
2022/05/25 04:10:44;;;;;;;0.70;0.70;;;19.70;56.80;;;;;;5149203;27;43443;-63
2022/05/25 04:13:12;;;;;;;0.70;0.70;;;19.70;56.80;;;;;;5150997;27;43796;-63
2022/05/25 04:15:39;;;;;;;0.77;0.77;;;19.70;56.80;;;;;;5148469;27;43519;-63
2022/05/25 04:18:07;;;;;;;0.70;0.70;;;19.70;56.80;;;;;;5141498;27;44084;-63
2022/05/25 04:20:34;;;;;;;0.80;0.80;;;19.60;56.80;;;;;;5146285;27;43485;-63
2022/05/25 04:23:02;;;;;;;0.73;0.73;;;19.60;56.80;;;;;;5150638;27;44960;-63
2022/05/25 04:25:30;;;;;;;0.60;0.60;;;19.60;56.80;;;;;;5148471;27;43529;-63
2022/05/25 04:27:58;;;;;;;0.85;0.70;;;19.60;56.80;;;;;;5148608;27;43516;-63
2022/05/25 04:30:29;;;;;;;0.70;0.70;;;19.60;56.80;;;;;;5149025;27;43486;-63
2022/05/25 04:32:56;;;;;;;;;;;19.60;56.80;;;;;;5148610;27;44997;-63
2022/05/25 04:35:26;;;;;;;0.77;0.77;;;19.60;56.80;;;;;;5148625;27;43412;-63
2022/05/25 04:37:54;;;;;;;0.70;0.70;;;19.60;56.90;;;;;;5148492;27;43448;-63
2022/05/25 04:40:40;;;;;;;1.27;0.82;;;19.60;56.90;;;;;;5129855;27;43624;-63
2022/05/25 04:43:12;;;;;;;0.70;0.70;;;19.60;56.80;;;;;;5148028;27;44982;-64
2022/05/25 04:45:46;;;;;;;0.70;0.70;;;19.60;56.80;;;;;;5144324;27;43476;-63
2022/05/25 04:48:16;;;;;;;0.90;0.90;;;19.60;56.90;;;;;;5145306;27;43418;-63
2022/05/25 04:50:45;;;;;;;1.83;0.80;;;19.50;56.90;;;;;;5146269;27;43598;-63
2022/05/25 04:53:15;;;;;;;1.30;0.80;;;19.50;56.80;;;;;;5147888;27;43780;-63
2022/05/25 04:58:37;;;;;;;1.02;0.80;;;19.50;56.90;;;;;;5150979;27;43442;-63
2022/05/25 05:01:06;;;;;;;0.80;0.80;;;19.50;56.90;;;;;;5143833;27;43366;-63
2022/05/25 05:03:34;;;;;;;2.15;0.80;;;19.50;56.90;;;;;;5147040;27;43802;-63
2022/05/25 05:06:02;;;;;;;0.90;0.90;;;19.50;57.00;;;;;;5151816;27;43854;-64
2022/05/25 05:08:30;;;;;;;0.90;0.90;;;19.50;57.00;;;;;;5148377;27;43444;-64
2022/05/25 05:11:09;;;;;;;0.80;0.80;;;19.50;56.90;;;;;;5152316;27;43423;-64
2022/05/25 05:13:38;;;;;;;0.80;0.75;;;19.50;56.90;;;;;;5151089;27;44659;-64
2022/05/25 05:16:08;;;;;;;0.73;0.73;;;19.50;57.00;;;;;;5153400;27;43647;-64
2022/05/25 05:18:37;;;;;;;1.02;1.02;;;19.50;57.00;;;;;;5149708;27;43375;-63
2022/05/25 05:21:36;;;;;;;0.70;0.70;;;19.40;56.90;;;;;;5128060;27;43590;-64
2022/05/25 05:24:04;;;;;;;0.90;0.90;;;19.50;57.00;;;;;;5154286;27;43800;-65
2022/05/25 05:26:32;;;;;;;0.75;0.70;;;19.50;57.00;;;;;;5150530;27;43450;-64
2022/05/25 05:29:00;;;;;;;0.75;0.75;;;19.50;57.00;;;;;;5147237;27;43481;-64
2022/05/25 05:31:27;;;;;;;1.30;0.90;;;19.50;57.00;;;;;;5148091;27;43429;-64
2022/05/25 05:33:55;;;;;;;0.82;0.80;;;19.40;57.00;;;;;;5152831;27;44996;-64
2022/05/25 05:36:30;;;;;;;0.80;0.80;;;19.40;57.00;;;;;;5150503;27;44050;-64
2022/05/25 05:39:07;;;;;;;0.80;0.80;;;19.40;57.10;;;;;;5151436;27;43530;-64
2022/05/25 05:41:44;;;;;;;1.27;0.80;;;19.40;57.00;;;;;;5149468;27;43552;-64
2022/05/25 05:44:17;;;;;;;0.80;0.80;;;19.40;57.10;;;;;;5151958;27;43844;-64
2022/05/25 05:46:46;;;;;;;0.70;0.70;;;19.40;57.10;;;;;;5145837;27;43430;-64
2022/05/25 05:49:13;;;;;;;0.80;0.80;;;19.40;57.00;;;;;;5147336;27;43534;-63
2022/05/25 05:51:42;;;;;;;0.90;0.90;;;19.40;57.10;;;;;;5154044;27;43482;-64
2022/05/25 05:54:10;;;;;;;0.68;0.68;;;19.40;57.10;;;;;;5150274;27;43792;-64
2022/05/25 05:56:37;;;;;;;1.38;0.90;;;19.40;57.10;;;;;;5148498;27;43465;-64
2022/05/25 05:59:05;;;;;;;2.03;0.85;;;19.40;57.20;;;;;;5151075;27;43423;-64
2022/05/25 06:01:32;;;;;;;1.00;0.90;;;19.40;57.20;;;;;;5153700;27;43451;-64
2022/05/25 06:04:00;;;;;;;1.38;0.90;;;19.40;57.20;;;;;;5129841;27;43945;-63
2022/05/25 06:06:28;;;;;;;1.00;0.80;;;19.40;57.20;;;;;;5128525;27;44178;-64
2022/05/25 06:08:56;;;;;;;1.00;1.00;;;19.40;57.20;;;;;;5150543;27;43642;-64
2022/05/25 06:11:24;;;;;;;0.82;0.82;;;19.50;57.20;;;;;;5153321;27;43582;-63
2022/05/25 06:13:51;;;;;;;0.80;0.70;;;19.40;57.10;;;;;;5149079;27;45055;-64
2022/05/25 06:22:05;;;;;;;0.60;0.60;;;19.40;57.20;;;;;;5141366;27;43442;-64
2022/05/25 06:24:40;;;;;;;1.13;0.75;;;19.40;57.20;;;;;;5148979;27;43786;-64
2022/05/25 06:27:10;;;;;;;0.88;0.88;;;19.40;57.20;;;;;;5153487;27;43783;-64
2022/05/25 06:29:43;;;;;;;0.60;0.60;;;19.40;57.20;;;;;;5150934;27;43504;-64
2022/05/25 06:32:14;;;;;;;0.98;0.90;;;19.40;57.20;;;;;;5150367;27;43436;-65
2022/05/25 06:34:42;;;;;;;1.25;0.90;;;19.40;57.20;;;;;;5148539;27;43795;-64
2022/05/25 06:37:23;;;;;;;0.82;0.80;;;19.40;57.20;;;;;;5151131;27;43442;-64
2022/05/25 06:39:51;;;;;;;0.85;0.80;;;19.40;57.10;;;;;;5150212;27;43489;-64
2022/05/25 06:42:20;;;;;;;0.88;0.88;;;19.40;57.10;;;;;;5150572;27;43638;-64
2022/05/25 06:44:54;;;;;;;1.42;1.05;;;19.40;57.20;;;;;;5131553;27;43807;-64
2022/05/25 06:47:22;;;;;;;0.90;0.80;;;19.40;57.10;;;;;;5139119;27;43451;-63
2022/05/25 06:49:54;;;;;;;0.95;0.60;;;19.40;57.20;;;;;;5147251;27;43454;-62
2022/05/25 06:52:23;;;;;;;0.70;0.70;;;19.40;57.10;;;;;;5149052;27;43977;-61
2022/05/25 06:54:55;;;;;;;0.88;0.70;;;19.40;57.20;;;;;;5151318;27;44044;-61
2022/05/25 06:57:25;;;;;;;1.55;0.77;;;19.40;57.10;;;;;;5150081;27;43710;-61
2022/05/25 06:59:54;;;;;;;0.73;0.73;;;19.40;57.20;;;;;;5149697;27;43467;-61
2022/05/25 07:02:23;;;;;;;0.88;0.88;;;19.40;57.20;;;;;;5149194;27;43480;-62
2022/05/25 07:04:52;;;;;;;0.70;0.70;;;19.40;57.10;;;;;;5146279;27;43770;-61
2022/05/25 07:07:19;;;;;;;0.80;0.80;;;19.40;57.10;;;;;;5149914;27;43503;-62
2022/05/25 07:09:47;;;;;;;1.15;0.88;;;19.40;57.20;;;;;;5149635;27;43464;-61
2022/05/25 07:12:15;;;;;;;1.15;0.90;;;19.40;57.30;;;;;;5148961;27;43471;-62
2022/05/25 07:14:42;;;;;;;2.92;1.10;;;19.40;57.20;;;;;;5149796;27;45078;-61
2022/05/25 07:17:11;;;;;;;1.92;0.90;;;19.40;57.40;;;;;;5149582;27;43381;-61
2022/05/25 07:19:38;;;;;;;0.80;0.80;;;19.40;57.40;;;;;;5148124;27;43480;-60
2022/05/25 07:22:11;;;;;;;0.70;0.70;;;19.40;57.40;;;;;;5150490;27;43987;-60
2022/05/25 07:24:45;;;;;;;1.92;0.80;;;19.40;57.30;;;;;;5147928;27;43828;-61
2022/05/25 07:27:13;;;;;;;2.58;0.90;;;19.40;57.40;;;;;;5154521;27;43682;-60
2022/05/25 07:29:41;;;;;;;1.00;0.90;;;19.40;57.30;;;;;;5150785;27;43482;-60
2022/05/25 07:32:11;;;;;;;1.55;0.90;;;19.40;57.30;;;;;;5151671;27;43451;-60
2022/05/25 07:34:44;;;;;;;1.60;0.98;;;19.40;57.30;;;;;;5141779;27;44792;-60
2022/05/25 07:37:19;;;;;;;0.90;0.80;;;19.40;57.40;;;;;;5122992;27;43485;-60
2022/05/25 07:39:54;;;;;;;1.95;0.77;;;19.40;57.40;;;;;;5147460;27;43525;-60
2022/05/25 07:42:23;;;;;;;1.25;0.60;;;19.40;57.30;;;;;;5149117;27;43506;-60
2022/05/25 07:45:01;;;;;;;0.82;0.82;;;19.40;57.40;;;;;;5141944;27;44040;-61
2022/05/25 07:47:31;;;;;;;1.98;0.90;;;19.40;57.40;;;;;;5140974;27;43417;-60
2022/05/25 07:49:58;;;;;;;1.27;0.80;;;19.40;57.40;;;;;;5155072;27;43532;-61
2022/05/25 07:52:30;;;;;;;1.08;0.90;;;19.40;57.30;;;;;;5145907;27;43555;-61
2022/05/25 07:55:02;;;;;;;0.95;0.80;;;19.40;57.30;;;;;;5143140;27;43858;-60
2022/05/25 07:57:29;;;;;;;2.50;0.80;;;19.40;57.40;;;;;;5148546;27;43507;-60
2022/05/25 07:59:57;;;;;;;0.88;0.80;;;19.40;57.30;;;;;;5144561;27;43490;-60
2022/05/25 08:05:43;;;;;;;1.33;0.70;;;19.40;57.50;;;;;;5145108;27;44347;-60
2022/05/25 08:08:22;;;;;;;3.10;1.77;;;19.40;57.40;;;;;;5137374;27;44008;-59
2022/05/25 08:11:08;;;;;;;3.35;1.85;;;19.40;57.40;;;;;;5127001;27;43521;-60
2022/05/25 08:13:44;;;;;;;2.95;1.90;;;19.50;57.40;;;;;;5149393;27;43462;-59
2022/05/25 08:16:13;;;;;;;2.72;2.00;;;19.50;57.40;;;;;;5148885;27;43644;-61
2022/05/25 08:18:40;;;;;;;3.03;1.50;;;19.60;57.40;;;;;;5148505;27;44113;-60
2022/05/25 08:21:08;;;;;;;1.70;1.60;;;19.70;57.40;;;;;;5140181;27;43576;-60
2022/05/25 08:23:36;;;;;;;2.40;1.63;;;19.70;57.30;;;;;;5146050;27;43504;-60
2022/05/25 08:26:04;;;;;;;2.13;1.70;;;19.80;57.30;;;;;;5148398;27;44904;-63
2022/05/25 08:28:31;;;;;;;2.33;1.55;;;19.90;57.20;;;;;;5147530;27;43381;-62
2022/05/25 08:30:59;;;;;;;3.00;1.95;;;20.00;57.10;;;;;;5121357;27;43493;-62
2022/05/25 08:33:26;;;;;;;1.52;1.30;;;20.20;57.20;;;;;;5144468;27;44015;-63
2022/05/25 08:35:54;;;;;;;4.85;1.55;;;20.30;57.00;;;;;;5148455;27;44720;-61
2022/05/25 08:38:22;;;;;;;2.40;1.20;;;20.50;57.00;;;;;;5148280;27;43736;-62
2022/05/25 08:40:51;;;;;;;4.55;1.73;;;20.70;57.00;;;;;;5150482;27;43489;-60
2022/05/25 08:43:48;;;;;;;2.80;1.27;;;20.90;57.00;;;;;;5148070;27;43606;-59
2022/05/25 08:46:22;;;;;;;2.80;1.40;;;21.00;56.70;;;;;;5140861;27;44191;-58
2022/05/25 08:48:50;;;;;;;1.48;1.10;;;21.30;56.50;;;;;;5143753;27;44164;-60
2022/05/25 08:51:42;;;;;;;2.58;1.20;;;21.50;56.20;;;;;;5136974;27;43386;-60
2022/05/25 08:54:09;;;;;;;3.17;1.30;;;21.80;55.80;;;;;;5148639;27;43440;-59
2022/05/25 08:56:41;;;;;;;5.03;1.42;;;22.00;55.40;;;;;;5150606;27;44080;-60
2022/05/25 08:59:47;;;;;;;5.13;1.38;;;22.20;55.10;;;;;;5145442;27;43464;-59
2022/05/25 09:02:23;;;;;;;1.20;1.10;;;22.40;54.70;;;;;;5088561;27;43514;-59
2022/05/25 09:05:06;;;;;;;2.97;1.38;;;22.60;54.30;;;;;;5145678;27;43421;-60
2022/05/25 09:07:47;;;;;;;1.20;1.08;;;22.70;53.90;;;;;;5140732;27;44641;-59
2022/05/25 09:10:17;;;;;;;3.17;1.27;;;22.90;53.70;;;;;;5149722;27;43475;-60
2022/05/25 09:12:44;;;;;;;1.38;1.00;;;23.10;53.50;;;;;;5148218;27;43370;-60
2022/05/25 09:15:11;;;;;;;3.10;1.10;;;23.20;53.10;;;;;;5148247;27;43444;-60
2022/05/25 09:17:47;;;;;;;2.35;1.30;;;23.20;52.90;;;;;;5144992;27;44052;-60
2022/05/25 09:20:36;;;;;;;1.75;1.00;;;23.30;52.80;;;;;;5143430;27;43414;-60
2022/05/25 09:23:04;;;;;;;3.50;1.00;;;23.30;52.50;;;;;;5133273;27;43437;-60
2022/05/25 09:25:34;;;;;;;0.95;0.95;;;23.30;52.50;;;;;;5144856;27;43455;-60
2022/05/25 09:28:03;;;;;;;3.70;1.00;;;23.30;52.50;;;;;;5140826;27;43781;-60
2022/05/25 09:30:37;;;;;;;1.88;0.90;;;23.30;52.50;;;;;;5145850;27;44022;-60
2022/05/25 09:33:33;;;;;;;1.08;0.98;;;23.30;52.60;;;;;;5129666;27;43436;-60
2022/05/25 09:36:11;;;;;;;3.08;1.10;;;23.20;52.30;;;;;;5145589;27;43449;-60
2022/05/25 09:38:56;;;;;;;1.70;1.20;;;23.20;52.70;;;;;;5120485;27;43808;-60
2022/05/25 09:41:27;;;;;;;0.77;0.77;;;23.10;52.60;;;;;;5147367;27;43921;-60
2022/05/25 09:43:58;;;;;;;2.33;0.90;;;23.00;52.80;;;;;;5149767;27;43446;-60
2022/05/25 09:46:30;;;;;;;0.73;0.70;;;23.00;52.90;;;;;;5145775;27;43468;-60
2022/05/25 09:49:02;;;;;;;1.38;0.90;;;22.90;52.90;;;;;;5150465;27;44718;-60
2022/05/25 09:51:41;;;;;;;2.22;1.05;;;22.90;53.60;;;;;;5152232;27;43460;-60
2022/05/25 09:54:28;;;;;;;0.73;0.73;;;22.80;53.10;;;;;;5151128;27;43411;-60
2022/05/25 09:57:05;;;;;;;1.65;1.08;;;22.80;53.30;;;;;;5150127;27;43516;-59
2022/05/25 09:59:49;;;;;;;2.58;1.30;;;22.80;53.20;;;;;;5153803;27;43788;-60
2022/05/25 10:02:50;;;;;;;2.08;1.30;;;22.70;53.30;;;;;;5138328;27;43532;-60
2022/05/25 10:05:27;;;;;;;1.40;1.30;;;22.60;53.30;;;;;;5142793;27;43449;-60
2022/05/25 10:08:20;;;;;;;1.88;1.00;;;22.60;53.50;;;;;;5144146;27;43601;-59
2022/05/25 10:10:57;;;;;;;1.33;1.20;;;22.60;53.70;;;;;;5121394;27;44344;-59
2022/05/25 10:13:28;;;;;;;2.03;1.50;;;22.60;53.90;;;;;;5128452;27;43456;-60
2022/05/25 10:15:58;;;;;;;2.78;1.17;;;22.50;53.90;;;;;;5147733;27;43512;-59
2022/05/25 10:18:55;;;;;;;1.73;1.00;;;22.50;54.00;;;;;;5150948;27;43440;-60
2022/05/25 10:21:34;;;;;;;1.55;1.25;;;22.50;54.10;;;;;;5136476;27;44053;-60
2022/05/25 10:24:12;;;;;;;1.20;1.10;;;22.50;54.20;;;;;;5140957;27;43772;-60
2022/05/25 10:26:46;;;;;;;1.20;1.20;;;22.50;54.20;;;;;;5145846;27;43467;-60
2022/05/25 10:36:45;;;;;;;2.30;1.35;;;22.40;54.20;;;;;;5151696;27;43435;-60
2022/05/25 10:38:30;;;;;;;1.50;1.40;;;22.30;54.40;;;;;;5146372;27;43508;-60
2022/05/25 10:41:37;;;;;;;1.40;1.30;;;22.30;54.40;;;;;;5133228;27;43617;-59
2022/05/25 10:43:59;;;;;;;2.05;1.70;;;22.30;54.50;;;;;;5145591;27;44051;-60
2022/05/25 10:46:30;;;;;;;1.10;1.10;;;22.20;54.50;;;;;;5151523;27;44015;-60
2022/05/25 10:49:01;;;;;;;;;;;22.20;54.60;;;;;;5148453;27;43419;-60
2022/05/25 10:51:40;;;;;;;2.17;1.55;;;22.20;54.70;;;;;;5131065;27;43537;-59
2022/05/25 10:54:44;;;;;;;1.50;1.40;;;22.10;54.80;;;;;;5150209;27;44037;-62
2022/05/25 10:57:34;;;;;;;1.30;1.20;;;22.10;54.80;;;;;;5138387;27;43598;-62
2022/05/25 11:00:20;;;;;;;1.60;1.50;;;22.10;54.80;;;;;;5150007;27;43430;-63
2022/05/25 11:02:53;;;;;;;1.55;1.40;;;22.00;54.80;;;;;;5149061;27;43557;-62
2022/05/25 11:05:40;;;;;;;1.58;1.40;;;22.00;54.90;;;;;;5146596;27;43787;-62
2022/05/25 11:08:25;;;;;;;1.77;1.50;;;22.00;55.00;;;;;;5150990;27;43981;-62
2022/05/25 11:11:17;;;;;;;1.40;1.30;;;22.00;55.00;;;;;;5134410;27;43420;-62
2022/05/25 11:14:01;;;;;;;1.70;1.60;;;21.90;54.90;;;;;;5145386;27;43508;-62
2022/05/25 11:16:35;;;;;;;1.45;1.30;;;21.90;54.80;;;;;;5129900;27;45667;-62
2022/05/25 11:19:11;;;;;;;1.45;1.35;;;21.90;54.70;;;;;;5130790;27;43547;-63
2022/05/25 11:22:04;;;;;;;1.38;1.25;;;21.80;54.70;;;;;;5130000;27;43540;-62
2022/05/25 11:24:53;;;;;;;1.88;1.30;;;21.80;54.80;;;;;;5149570;27;43641;-62
2022/05/25 11:27:29;;;;;;;1.83;1.25;;;21.80;54.90;;;;;;5140201;27;44934;-63
2022/05/25 11:30:32;;;;;;;1.77;1.33;;;21.70;55.00;;;;;;5147435;27;43477;-62
2022/05/25 11:33:27;;;;;;;1.30;1.20;;;21.70;55.10;;;;;;5105824;27;43575;-62
2022/05/25 11:36:54;;;;;;;1.48;1.08;;;21.70;55.30;;;;;;5148963;27;43447;-62
2022/05/25 11:39:57;;;;;;;1.23;1.23;;;21.70;55.20;;;;;;5144854;27;43801;-62
2022/05/25 11:42:59;;;;;;;1.45;1.30;;;21.60;55.20;;;;;;5142907;27;43970;-62
2022/05/25 11:45:45;;;;;;;1.23;1.13;;;21.60;55.20;;;;;;5140121;27;43490;-62
2022/05/25 11:48:43;;;;;;;1.10;1.10;;;21.60;55.40;;;;;;5143938;27;43500;-62
2022/05/25 11:51:22;;;;;;;1.10;1.10;;;21.60;55.40;;;;;;5146286;27;44315;-62
2022/05/25 11:54:19;;;;;;;0.80;0.80;;;21.50;55.40;;;;;;5146047;27;43961;-62
2022/05/25 11:56:58;;;;;;;1.98;1.20;;;21.50;55.50;;;;;;5148933;27;43482;-62
2022/05/25 11:59:56;;;;;;;1.23;1.10;;;21.50;55.50;;;;;;5148479;27;44032;-62
2022/05/25 12:02:52;;;;;;;1.10;1.10;;;21.60;55.60;;;;;;5141007;27;44756;-62
2022/05/25 12:05:22;;;;;;;1.00;1.00;;;21.60;55.60;;;;;;5145777;27;43713;-62
2022/05/25 12:07:57;;;;;;;1.33;1.02;;;21.50;55.50;;;;;;5145907;27;43496;-63
2022/05/25 12:10:27;;;;;;;1.10;1.10;;;21.60;55.60;;;;;;5125127;27;43497;-63
2022/05/25 12:13:13;;;;;;;1.35;1.25;;;21.50;56.20;;;;;;5125552;27;44285;-62
2022/05/25 12:15:53;;;;;;;1.00;1.00;;;21.60;55.60;;;;;;5123870;27;44030;-62
2022/05/25 12:18:42;;;;;;;0.90;0.90;;;21.50;55.60;;;;;;5126806;27;44100;-62
2022/05/25 12:21:18;;;;;;;1.20;1.10;;;21.50;55.70;;;;;;5125299;27;43543;-62
2022/05/25 12:23:52;;;;;;;1.40;1.15;;;21.50;55.70;;;;;;5116363;27;43946;-62
2022/05/25 12:26:26;;;;;;;1.77;1.10;;;21.50;55.70;;;;;;5125241;27;43474;-62
2022/05/25 12:29:16;;;;;;;1.25;1.15;;;21.50;55.60;;;;;;5126948;27;43441;-62
2022/05/25 12:31:49;;;;;;;0.98;0.95;;;21.50;55.60;;;;;;5116482;27;43472;-63
2022/05/25 12:34:23;;;;;;;1.30;1.20;;;21.50;55.60;;;;;;5125885;27;43817;-62
2022/05/25 12:36:52;;;;;;;1.00;1.00;;;21.60;55.60;;;;;;5128881;27;43496;-63
2022/05/25 12:39:44;;;;;;;1.58;1.17;;;21.60;55.60;;;;;;5124927;27;43467;-62
2022/05/25 12:42:25;;;;;;;1.00;1.00;;;21.60;55.50;;;;;;5126799;27;43619;-62
2022/05/25 12:50:48;;;;;;;1.17;1.08;;;21.60;55.20;;;;;;5124324;27;43403;-62
2022/05/25 12:53:36;;;;;;;1.02;0.73;;;21.60;55.20;;;;;;5121363;27;43568;-62
2022/05/25 12:56:19;;;;;;;1.80;1.00;;;21.70;55.30;;;;;;5126345;27;43793;-62
2022/05/25 12:58:46;;;;;;;1.17;1.08;;;21.70;55.30;;;;;;5126452;27;43788;-62
2022/05/25 13:01:13;;;;;;;0.95;0.95;;;21.60;55.20;;;;;;5122267;27;43408;-62
2022/05/25 13:04:13;;;;;;;1.10;0.77;;;21.60;55.10;;;;;;5117530;27;43432;-62
2022/05/25 13:06:46;;;;;;;1.40;0.90;;;21.70;55.10;;;;;;5125382;27;43882;-62
2022/05/25 13:09:17;;;;;;;0.88;0.77;;;21.60;55.10;;;;;;5127589;27;43828;-62
2022/05/25 13:11:46;;;;;;;0.80;0.80;;;21.60;55.00;;;;;;5144246;27;43447;-62
2022/05/25 13:14:16;;;;;;;0.75;0.75;;;21.60;55.10;;;;;;5150353;27;43508;-62
2022/05/25 13:16:45;;;;;;;1.02;0.85;;;21.60;55.10;;;;;;5143162;27;44012;-62
2022/05/25 13:19:31;;;;;;;1.38;0.73;;;21.60;55.10;;;;;;5147408;27;43497;-63
2022/05/25 13:22:02;;;;;;;1.98;0.80;;;21.60;55.00;;;;;;5149004;27;43546;-62
2022/05/25 13:24:29;;;;;;;;;;;21.60;54.90;;;;;;5149366;27;43619;-59
2022/05/25 13:27:20;;;;;;;1.40;0.80;;;21.60;54.90;;;;;;5150710;27;43827;-59
2022/05/25 13:29:53;;;;;;;0.70;0.70;;;21.60;54.90;;;;;;5153763;27;43981;-59
2022/05/25 13:32:42;;;;;;;1.00;0.70;;;21.60;54.90;;;;;;5148511;27;43429;-60
2022/05/25 13:35:21;;;;;;;0.60;0.60;;;21.50;54.90;;;;;;5126924;27;43441;-59
2022/05/25 13:38:08;;;;;;;1.77;0.80;;;21.50;54.90;;;;;;5131218;27;44043;-60
2022/05/25 13:40:41;;;;;;;0.82;0.82;;;21.60;55.10;;;;;;5140879;27;43479;-60
2022/05/25 13:43:12;;;;;;;1.40;0.60;;;21.50;55.00;;;;;;5161294;27;43550;-60
2022/05/25 13:45:43;;;;;;;1.50;0.80;;;21.50;54.90;;;;;;5151697;27;44037;-59
2022/05/25 13:48:17;;;;;;;2.15;0.63;;;21.50;54.80;;;;;;5139553;27;43798;-59
2022/05/25 13:50:52;;;;;;;2.15;0.80;;;21.50;54.80;;;;;;5129650;27;43546;-60
2022/05/25 13:53:37;;;;;;;0.68;0.68;;;21.50;54.80;;;;;;5152952;27;43457;-60